createdAt,value
2019-02-28T00:05:39.071Z,52.5
2019-02-28T00:15:42.549Z,53
2019-02-28T00:25:46.024Z,52.8
2019-02-28T00:35:49.468Z,53.4
2019-02-28T00:45:52.892Z,53.6
2019-02-28T00:55:56.318Z,53.7
2019-02-28T01:05:59.734Z,54.4
2019-02-28T01:16:03.173Z,54.8
2019-02-28T01:26:06.626Z,54.9
2019-02-28T01:36:16.235Z,55.1
2019-02-28T01:46:19.756Z,55.2
2019-02-28T01:56:23.204Z,55.3
2019-02-28T02:06:26.778Z,55.4
2019-02-28T02:16:30.243Z,55.4
2019-02-28T02:26:33.712Z,55.5
2019-02-28T02:36:37.132Z,55.5
2019-02-28T02:46:40.595Z,56.1
2019-02-28T02:56:44.111Z,56.4
2019-02-28T03:06:47.566Z,56.8
2019-02-28T03:16:51.072Z,56.6
2019-02-28T03:26:54.502Z,56.6
2019-02-28T03:36:58.036Z,57
2019-02-28T03:47:01.493Z,57.2
2019-02-28T03:57:05.010Z,57
2019-02-28T04:07:16.990Z,58.2
2019-02-28T04:17:20.587Z,58.3
2019-02-28T04:27:24.035Z,57.7
2019-02-28T04:37:27.461Z,57.3
2019-02-28T04:47:30.914Z,57.4
2019-02-28T04:57:34.353Z,57.4
2019-02-28T05:07:37.747Z,57.4
2019-02-28T05:17:41.169Z,57.4
2019-02-28T05:27:44.613Z,57.1
2019-02-28T05:37:48.711Z,57.6
2019-02-28T05:47:52.168Z,57.8
2019-02-28T05:57:55.598Z,57.6
2019-02-28T06:08:04.205Z,57.8
2019-02-28T06:18:07.729Z,57.8
2019-02-28T06:28:12.188Z,58.1
2019-02-28T06:38:19.876Z,58.2
2019-02-28T06:48:26.758Z,58.5
2019-02-28T06:58:33.893Z,58.6
2019-02-28T07:08:37.447Z,57.5
2019-02-28T07:18:40.877Z,53.8
2019-02-28T07:28:44.371Z,50.8
2019-02-28T07:38:47.826Z,50.1
2019-02-28T07:48:51.266Z,47.9
2019-02-28T07:58:54.727Z,46.6
2019-02-28T08:08:58.193Z,45
2019-02-28T08:19:01.635Z,43.8
2019-02-28T08:29:11.585Z,42.6
2019-02-28T08:39:16.501Z,41.6
2019-02-28T08:49:19.970Z,40.6
2019-02-28T08:59:23.397Z,40.9
2019-02-28T09:09:26.818Z,39.8
2019-02-28T09:19:36.715Z,38.8
2019-02-28T09:29:40.348Z,37.7
2019-02-28T09:39:43.781Z,37.2
2019-02-28T09:49:48.104Z,36.6
2019-02-28T09:59:51.527Z,35.7
2019-02-28T10:09:54.979Z,36.7
2019-02-28T10:19:58.486Z,35.1
2019-02-28T10:30:01.945Z,36.5
2019-02-28T10:40:05.390Z,37.4
2019-02-28T10:50:08.863Z,36.9
2019-02-28T11:00:12.273Z,37.7
2019-02-28T11:10:15.683Z,37
2019-02-28T11:20:26.067Z,37.3
2019-02-28T11:30:30.594Z,37.9
2019-02-28T11:40:34.012Z,37.2
2019-02-28T11:50:43.037Z,38.1
2019-02-28T12:00:48.492Z,37.8
2019-02-28T12:10:51.919Z,37.8
2019-02-28T12:20:55.318Z,37.7
2019-02-28T12:31:01.672Z,36.2
2019-02-28T12:41:05.093Z,36.3
2019-02-28T12:51:08.542Z,36.5
2019-02-28T13:01:11.989Z,36.5
2019-02-28T13:11:15.391Z,37.5
2019-02-28T13:21:19.062Z,37.7
2019-02-28T13:31:26.944Z,37
2019-02-28T13:41:30.611Z,37
2019-02-28T13:51:42.393Z,35.6
2019-02-28T14:01:46.217Z,35.5
2019-02-28T14:11:52.069Z,35.5
2019-02-28T14:21:55.543Z,35.2
2019-02-28T14:31:58.996Z,36
2019-02-28T14:42:07.768Z,35.7
2019-02-28T14:52:11.540Z,34.9
2019-02-28T15:02:15.990Z,32.6
2019-02-28T15:12:23.366Z,33
2019-02-28T15:22:27.967Z,32.8
2019-02-28T15:32:31.397Z,33.1
2019-02-28T15:42:34.906Z,33.4
2019-02-28T15:52:40.214Z,34.3
2019-02-28T16:02:43.656Z,34.4
2019-02-28T16:12:51.227Z,34.9
2019-02-28T16:22:54.722Z,34.8
2019-02-28T16:32:58.194Z,34.5
2019-02-28T16:43:01.654Z,36.3
2019-02-28T16:53:05.088Z,38.1
2019-02-28T17:03:08.528Z,40.4
2019-02-28T17:13:11.979Z,41.1
2019-02-28T17:23:15.411Z,41.2
2019-02-28T17:33:18.846Z,42.2
2019-02-28T17:43:25.321Z,42.6
2019-02-28T17:53:28.742Z,43
2019-02-28T18:03:32.199Z,43.4
2019-02-28T18:13:35.661Z,44.1
2019-02-28T18:23:39.115Z,44.1
2019-02-28T18:33:45.778Z,44.7
2019-02-28T18:43:49.250Z,44.9
2019-02-28T18:53:52.674Z,45.5
2019-02-28T19:03:56.119Z,46.5
2019-02-28T19:13:59.536Z,46.9
2019-02-28T19:24:02.986Z,48.9
2019-02-28T19:34:06.458Z,50.8
2019-02-28T19:44:09.922Z,50.4
2019-02-28T19:54:13.364Z,48.5
2019-02-28T20:04:16.799Z,47.5
2019-02-28T20:14:20.234Z,47.1
2019-02-28T20:24:23.682Z,46.9
2019-02-28T20:34:29.094Z,46.8
2019-02-28T20:44:32.641Z,47.1
2019-02-28T20:54:36.084Z,47.8
2019-02-28T21:04:39.510Z,49.2
2019-02-28T21:14:42.988Z,51.7
2019-02-28T21:24:46.429Z,53.4
2019-02-28T21:34:49.879Z,55.2
2019-02-28T21:44:53.312Z,57
2019-02-28T21:54:57.770Z,56.5
2019-02-28T22:05:01.226Z,57.4
2019-02-28T22:15:04.657Z,58.2
2019-02-28T22:25:08.119Z,57.9
2019-02-28T22:35:11.561Z,57.9
2019-02-28T22:45:15.003Z,57.8
2019-02-28T22:55:18.450Z,58.4
2019-02-28T23:05:21.863Z,56.5
2019-02-28T23:15:25.311Z,55.9
2019-02-28T23:25:28.735Z,54.8
2019-02-28T23:35:32.160Z,55.1
2019-02-28T23:45:35.587Z,55.1
2019-02-28T23:55:39.029Z,57.8
